Latest Coastal Weather Observations for Albany Airport

IDW60701

Issued at 11:32 pm WST Friday 31 July 2015 (issued every 10 minutes, with the page automatically refreshed every 10 minutes)

About coastal observations | Map of coastal stations | Coastal observations for WA | Marine services | Other Formats
Station Details ID: 009999 Name: ALBANY AIRPORT Lat: -34.94 Lon: 117.82 Height: 68.4 m
Data from the previous 72 hours. | See also: Recent months at Albany Airport
Date/Time
WST
Temp

°C
Wind Pressure Rain
since 9am
mm
Weather Cloud Vis
km
Sea
Height
m
Swell
Dir
 
Speed
knots
Gust
knots
hPa Trend Height
m
Period
s
Dir
31/11:30pm 11.7 SE 14 21 1021.4 - 0.6 - Partly cloudy 8 - - - -
31/11:00pm 12.3 SE 9 13 1021.5 - 0.6 - Partly cloudy 10 - - - -
31/10:30pm 12.2 SE 13 17 1021.2 - 0.6 - Partly cloudy 10 - - - -
31/10:00pm 12.3 SE 11 15 1021.0 - 0.6 - Partly cloudy 10 - - - -
31/09:30pm 12.6 SE 13 21 1020.7 - 0.6 - Partly cloudy 10 - - - -
31/09:00pm 12.6 SE 15 21 1020.5 - 0.6 - Cloudy 9 - - - -
31/08:30pm 12.8 SE 15 21 1019.9 - 0.6 - Partly cloudy 10 - - - -
31/08:28pm 12.7 SE 15 20 1019.9 - 0.6 - Partly cloudy 10 - - - -
31/08:13pm 12.7 SE 15 19 1019.6 - 0.6 - Partly cloudy 8 - - - -
31/08:00pm 12.7 SE 14 22 1019.5 - 0.6 - Partly cloudy 10 - - - -
31/07:30pm 12.7 SE 12 17 1019.2 - 0.6 - Partly cloudy 10 - - - -
31/07:00pm 12.8 SE 13 19 1018.7 - 0.6 - Partly cloudy 10 - - - -
31/06:30pm 12.6 SE 13 19 1018.9 - 0.6 - Partly cloudy 10 - - - -
31/06:00pm 12.5 SE 12 16 1018.8 - 0.6 - Cloudy 10 - - - -
31/05:30pm 12.8 SSE 11 15 1018.6 - 0.6 - Partly cloudy 10 - - - -
31/05:00pm 12.8 ESE 12 16 1018.1 - 0.6 - Partly cloudy 10 - - - -
31/04:30pm 12.7 SE 12 18 1017.1 - 0.6 - Mostly cloudy 10 - - - -
31/04:00pm 13.0 SE 14 19 1016.5 - 0.6 - Mostly clear 10 - - - -
31/03:30pm 13.1 ESE 15 20 1016.5 - 0.6 - Partly cloudy 10 - - - -
31/03:00pm 13.0 ESE 13 20 1016.5 R 0.6 Fine Cloudy 20 - - - -
31/02:30pm 12.8 SE 14 19 1015.9 - 0.6 - Partly cloudy 10 - - - -
31/02:00pm 12.8 SE 16 21 1015.8 - 0.6 - Partly cloudy 10 - - - -
31/01:48pm 12.9 SE 16 26 1015.5 - 0.6 - Partly cloudy 10 - - - -
31/01:30pm 13.0 SE 17 23 1015.6 - 0.6 - Mostly clear 10 - - - -
31/01:00pm 12.7 SE 15 21 1016.0 - 0.6 - Mostly cloudy 10 - - - -
31/12:30pm 12.4 SE 16 21 1015.9 - 0.6 - Mostly cloudy 10 - - - -
31/12:00pm 12.8 SE 16 21 1016.2 R 0.4 Distant precip. Cloudy 12 - - - -
31/11:29am 12.4 ESE 13 18 1016.0 - 0.4 Rain Mostly clear 10 - - - -
31/11:00am 11.7 SE 14 19 1016.8 - 0.4 Rain Mostly clear 5 - - - -
31/10:30am 11.6 SE 15 22 1016.8 - 0.4 Rain Mostly clear 2 - - - -
31/10:19am 11.7 ESE 15 21 1016.6 - 0.4 Rain Mostly clear 4 - - - -
31/10:00am 11.9 SE 12 17 1016.2 - 0.4 Rain Mostly clear 4 - - - -
31/09:30am 12.1 SE 14 17 1016.1 - 0.2 Showers Mostly clear 2 - - - -
31/09:00am 12.0 SE 15 19 1016.2 R 84.2 Showers Cloudy 2 - - - -
31/08:30am 12.3 SE 13 19 1015.5 - 84.0 Showers Mostly cloudy 2 - - - -
31/08:00am 12.4 SE 13 19 1015.1 - 83.8 Rain Mostly cloudy 8 - - - -
31/07:30am 12.4 SE 16 22 1014.0 - 83.8 Rain Partly cloudy 6 - - - -
31/07:00am 12.8 SE 13 17 1013.4 - 83.6 Showers Mostly cloudy 4 - - - -
31/06:30am 13.2 SE 11 17 1013.6 - 82.0 Showers Mostly cloudy 2 - - - -
31/06:00am 13.7 SE 12 16 1013.2 R 79.4 Showers Mostly cloudy 2 - - - -
31/05:30am 14.0 SE 10 13 1012.6 - 78.0 - Partly cloudy 3 - - - -
31/05:00am 13.5 CALM 0 0 1012.4 - 77.4 - Cloudy 0.9 - - - -
31/04:30am 13.4 S 4 5 1012.3 - 77.4 - Partly cloudy 0.6 - - - -
31/04:13am 13.4 SSW 3 5 1012.5 - 77.4 - Partly cloudy 0.5 - - - -
31/04:00am 13.4 CALM 0 1 1012.4 - 77.4 - Partly cloudy 0.6 - - - -
31/03:35am 13.4 SE 4 6 1012.4 - 77.4 - Partly cloudy 2 - - - -
31/03:30am 13.4 SSE 4 6 1012.0 - 77.2 - Partly cloudy 2 - - - -
31/03:05am 13.4 SSE 5 10 1012.5 - 76.2 - Partly cloudy 0.5 - - - -
31/03:00am 13.3 ESE 5 10 1012.0 - 76.0 - Cloudy 0.4 - - - -
31/02:57am 13.2 E 5 10 1011.2 - 76.0 - Partly cloudy 0.4 - - - -
31/02:30am 13.1 E 1 5 1013.4 - 75.8 - Partly cloudy 0.7 - - - -
31/02:04am 13.4 NW 4 6 1013.3 - 75.8 - Partly cloudy 8 - - - -
31/02:00am 13.4 NW 4 6 1013.4 - 75.8 - Partly cloudy 9 - - - -
31/01:59am 13.4 WNW 4 6 1013.4 - 75.8 - Partly cloudy 10 - - - -
31/01:36am 13.4 NW 3 5 1013.4 - 75.6 - Partly cloudy 8 - - - -
31/01:30am 13.4 NNW 4 5 1013.4 - 75.6 - Partly cloudy 10 - - - -
31/01:00am 13.6 SSE 5 6 1013.1 - 75.0 - Partly cloudy 1 - - - -
31/12:47am 13.6 SSE 4 4 1013.9 - 73.2 - Partly cloudy 2 - - - -
31/12:30am 13.5 SSW 1 5 1014.3 - 71.0 - Partly cloudy 1 - - - -
31/12:13am 13.5 CALM 0 0 1014.6 - 68.4 - Partly cloudy 7 - - - -
31/12:12am 13.5 CALM 0 1 1014.6 - 68.4 - Partly cloudy 8 - - - -
31/12:00am 13.5 E 2 3 1014.5 - 68.2 - Cloudy 10 - - - -
 
Date/Time
WST
Temp

°C
Wind Pressure Rain
since 9am
mm
Weather Cloud Vis
km
Sea
Height
m
Swell
Dir
 
Speed
knots
Gust
knots
hPa Trend Height
m
Period
s
Dir
30/11:52pm 13.5 E 3 5 1014.3 - 68.2 - Partly cloudy 10 - - - -
30/11:30pm 13.6 E 3 4 1014.8 - 68.2 - Cloudy 10 - - - -
30/11:00pm 13.6 ESE 6 7 1015.1 - 68.2 - Partly cloudy 10 - - - -
30/10:56pm 13.7 SE 5 6 1015.2 - 68.2 - Partly cloudy 10 - - - -
30/10:48pm 13.6 SSE 3 4 1015.6 - 68.2 - Partly cloudy 10 - - - -
30/10:30pm 13.6 E 4 6 1015.6 - 67.8 - Partly cloudy 7 - - - -
30/10:25pm 13.6 ENE 5 6 1015.7 - 67.8 - Partly cloudy 8 - - - -
30/10:12pm 13.6 E 4 6 1015.7 - 67.4 - Partly cloudy 10 - - - -
30/10:00pm 13.6 E 5 7 1015.7 - 67.2 - Partly cloudy 8 - - - -
30/09:56pm 13.7 ENE 5 7 1015.9 - 67.0 - Partly cloudy 7 - - - -
30/09:31pm 13.8 ENE 5 8 1016.3 - 65.6 - Partly cloudy 5 - - - -
30/09:30pm 13.8 ENE 5 8 1016.3 - 65.6 - Partly cloudy 5 - - - -
30/09:22pm 13.8 ENE 7 10 1016.3 - 65.0 - Partly cloudy 8 - - - -
30/09:11pm 13.8 E 7 9 1016.4 - 64.6 - Partly cloudy 10 - - - -
30/09:00pm 13.8 E 8 10 1016.7 - 64.2 - Cloudy 10 - - - -
30/08:30pm 13.9 E 8 11 1016.8 - 64.2 - Cloudy 10 - - - -
30/08:00pm 13.8 E 7 9 1017.1 - 64.0 - Cloudy 10 - - - -
30/07:46pm 13.7 E 7 9 1017.4 - 64.0 - Partly cloudy 10 - - - -
30/07:30pm 13.7 E 7 9 1017.6 - 64.0 - Partly cloudy 10 - - - -
30/07:00pm 13.7 E 7 9 1017.9 - 63.8 - Partly cloudy 4 - - - -
30/06:54pm 13.7 E 7 9 1018.1 - 63.8 - Partly cloudy 4 - - - -
30/06:30pm 13.7 E 6 8 1018.2 - 63.4 - Partly cloudy 2 - - - -
30/06:00pm 13.8 E 6 8 1018.2 - 62.0 - Cloudy 8 - - - -
30/05:57pm 13.8 E 7 9 1018.0 - 62.0 - Partly cloudy 10 - - - -
30/05:38pm 13.8 E 6 8 1018.1 - 61.8 - Cloudy 8 - - - -
30/05:30pm 13.9 E 7 9 1018.1 - 61.8 - Cloudy 10 - - - -
30/05:00pm 14.1 E 7 9 1018.3 - 61.8 - Partly cloudy 10 - - - -
30/04:39pm 14.2 ENE 9 12 1018.2 - 61.8 - Mostly clear 10 - - - -
30/04:30pm 14.2 ENE 9 11 1018.2 - 61.8 - Mostly clear 10 - - - -
30/04:00pm 14.6 ENE 11 13 1018.3 - 61.8 - Mostly clear 10 - - - -
30/03:42pm 14.1 ENE 9 13 1018.7 - 61.8 Drizzle Mostly clear 8 - - - -
30/03:30pm 14.3 ENE 9 12 1018.7 - 61.8 Showers Mostly clear 4 - - - -
30/03:14pm 14.8 ENE 8 11 1018.9 - 61.8 Showers Mostly clear 7 - - - -
30/03:00pm 14.9 ENE 8 10 1019.5 F 0.0 Showers Mostly cloudy 20 - - - -
30/02:30pm 15.2 ENE 7 9 1019.5 - 61.8 - Partly cloudy 10 - - - -
30/02:13pm 15.1 ENE 8 10 1019.7 - 61.8 - Partly cloudy 10 - - - -
30/02:00pm 15.2 E 7 9 1019.9 - 0.0 - Mostly cloudy 10 - - - -
30/01:47pm 15.3 E 8 11 1020.0 - 61.8 - Partly cloudy 10 - - - -
30/01:30pm 15.4 ENE 8 11 1020.2 - 61.8 - Mostly clear 10 - - - -
30/01:00pm 14.9 ENE 10 12 1020.8 - 61.8 - Partly cloudy 10 - - - -
30/12:30pm 15.0 ENE 9 12 1021.1 - 33.6 - Partly cloudy 10 - - - -
30/12:09pm 14.5 ENE 9 12 1021.8 - 0.0 - Partly cloudy 10 - - - -
30/12:00pm 14.5 ENE 9 11 1022.1 F 0.0 Haze Mostly cloudy 20 - - - -
30/11:30am 14.7 E 9 11 1021.9 - 0.0 - Partly cloudy 10 - - - -
30/11:00am 14.5 ENE 9 11 1022.5 - 0.0 - Mostly cloudy 10 - - - -
30/10:30am 14.2 E 8 9 1022.7 - 0.0 - Partly cloudy 10 - - - -
30/10:00am 13.7 E 7 10 1022.9 - 0.0 - Partly cloudy 10 - - - -
30/09:30am 13.3 ENE 6 7 1023.1 - 0.0 - Mostly clear 10 - - - -
30/09:00am 13.2 E 5 7 1023.1 R 2.8 Fine Mostly cloudy 25 - - - -
30/08:30am 12.2 ENE 3 4 1022.9 - 2.8 - Mostly cloudy 10 - - - -
30/08:00am 12.0 NE 5 5 1022.9 - 2.8 - Mostly cloudy 10 - - - -
30/07:30am 11.2 ENE 4 5 1022.5 - 2.8 - Mostly clear 10 - - - -
30/07:00am 11.5 NE 4 6 1022.1 - 2.8 - Mostly clear 10 - - - -
30/06:30am 11.7 NE 4 6 1021.8 - 2.8 - Partly cloudy 10 - - - -
30/06:00am 12.3 E 7 9 1021.5 F 2.8 Fine Mostly cloudy 25 - - - -
30/05:30am 12.2 ESE 7 11 1021.3 - 2.8 - Cloudy 10 - - - -
30/05:00am 12.3 ESE 8 10 1021.1 - 2.8 - Cloudy 10 - - - -
30/04:30am 12.0 ESE 7 8 1021.0 - 2.8 - Cloudy 10 - - - -
30/04:00am 11.9 ESE 6 7 1021.2 - 2.8 - Partly cloudy 10 - - - -
30/03:30am 12.0 SE 8 11 1021.3 - 2.8 - Partly cloudy 10 - - - -
30/03:00am 11.9 SE 9 13 1021.5 - 2.8 - Cloudy 10 - - - -
30/02:53am 11.9 SE 10 13 1021.1 - 2.8 - Partly cloudy 10 - - - -
30/02:40am 12.1 SSE 8 12 1021.2 - 2.8 - Partly cloudy 8 - - - -
30/02:39am 12.1 SSE 8 12 1021.2 - 2.8 - Partly cloudy 9 - - - -
30/02:30am 12.2 SSE 9 13 1021.0 - 2.8 - Partly cloudy 10 - - - -
30/02:00am 12.6 SSE 8 11 1020.8 - 2.8 - Partly cloudy 10 - - - -
30/01:30am 13.0 SSE 6 9 1020.8 - 2.8 - Partly cloudy 10 - - - -
30/01:00am 13.2 SSE 5 6 1020.7 - 2.8 - Partly cloudy 10 - - - -
30/12:46am 13.3 SSE 5 7 1020.7 - 2.8 - Cloudy 10 - - - -
30/12:30am 13.2 SSE 5 6 1020.5 - 2.8 - Partly cloudy 10 - - - -
30/12:02am 13.4 SSE 6 9 1020.2 - 2.8 - Partly cloudy 10 - - - -
30/12:00am 13.4 SSE 6 9 1020.4 - 2.8 - Mostly cloudy 10 - - - -
 
Date/Time
WST
Temp

°C
Wind Pressure Rain
since 9am
mm
Weather Cloud Vis
km
Sea
Height
m
Swell
Dir
 
Speed
knots
Gust
knots
hPa Trend Height
m
Period
s
Dir
29/11:47pm 13.6 SSE 5 8 1020.2 - 2.8 - Partly cloudy 6 - - - -
29/11:43pm 13.6 SSE 5 9 1020.3 - 2.8 - Partly cloudy 8 - - - -
29/11:30pm 13.6 S 4 5 1020.2 - 2.8 - Partly cloudy 10 - - - -
29/11:14pm 13.7 WSW 6 10 1020.1 - 2.8 - Partly cloudy 10 - - - -
29/11:00pm 13.0 W 5 6 1020.1 - 2.8 - Partly cloudy 10 - - - -
29/10:30pm 13.1 W 5 6 1019.8 - 2.8 - Partly cloudy 10 - - - -
29/10:00pm 13.6 WNW 6 7 1019.6 - 2.8 - Partly cloudy 10 - - - -
29/09:32pm 13.9 WNW 6 7 1019.6 - 2.8 - Partly cloudy 10 - - - -
29/09:30pm 13.9 WNW 6 7 1019.7 - 2.8 - Partly cloudy 10 - - - -
29/09:00pm 13.9 W 5 7 1019.6 - 2.6 - Cloudy 5 - - - -
29/08:55pm 13.9 W 6 7 1019.4 - 2.6 - Partly cloudy 7 - - - -
29/08:30pm 13.9 WNW 7 9 1019.5 - 1.6 - Partly cloudy 4 - - - -
29/08:04pm 14.4 SW 8 12 1019.1 - 0.2 - Partly cloudy 8 - - - -
29/08:00pm 14.2 SW 7 9 1019.0 - 0.2 - Partly cloudy 10 - - - -
29/07:30pm 13.4 W 7 11 1018.8 - 0.0 - Partly cloudy 10 - - - -
29/07:00pm 12.5 WNW 6 7 1018.1 - 0.0 - - 10 - - - -
29/06:30pm 12.3 NW 7 8 1017.7 - 0.0 - Partly cloudy 10 - - - -
29/06:00pm 12.5 NW 6 6 1017.5 - 0.0 - - 10 - - - -
29/05:30pm 13.7 WNW 6 7 1016.8 - 0.0 - - 10 - - - -
29/05:00pm 16.0 NW 6 9 1016.3 - 0.0 - Mostly clear 10 - - - -
29/04:30pm 16.4 NNW 8 11 1016.2 - 0.0 - Mostly clear 10 - - - -
29/04:00pm 16.9 NNW 6 7 1016.3 - 0.0 - Mostly clear 10 - - - -
29/03:30pm 16.9 NW 7 9 1016.2 - 0.0 - Mostly clear 10 - - - -
29/03:00pm 17.6 NW 8 10 1016.0 R 0.0 Fine Mostly cloudy 35 - - - -
29/02:30pm 17.4 WNW 8 10 1015.5 - 0.0 - Mostly clear 10 - - - -
29/02:00pm 16.8 NW 7 10 1015.4 - 0.0 - Mostly clear 10 - - - -
29/01:30pm 16.4 N 7 10 1015.1 - 0.0 - Mostly clear 10 - - - -
29/01:00pm 16.1 NNW 8 11 1015.5 - 0.0 - Mostly clear 10 - - - -
29/12:30pm 15.9 NNW 8 11 1016.2 - 0.0 - Mostly clear 10 - - - -
29/12:00pm 15.2 NW 9 13 1017.0 R 0.0 Fine Mostly cloudy 25 - - - -
29/11:30am 15.0 NW 10 12 1016.9 - 0.0 - Mostly clear 10 - - - -
29/11:00am 14.9 NW 10 13 1017.2 - 0.0 - Mostly clear 10 - - - -
29/10:30am 14.1 NW 12 16 1017.5 - 0.0 - Mostly clear 10 - - - -
29/10:00am 13.7 NW 12 16 1017.5 - 0.0 - Mostly clear 10 - - - -
29/09:30am 12.7 NW 10 12 1017.3 - 0.0 - Partly cloudy 10 - - - -
29/09:00am 12.3 WNW 9 12 1017.4 F 0.0 Fine Mostly cloudy 20 - - - -
29/08:51am 11.8 NW 10 12 1017.3 - 0.0 - Partly cloudy 10 - - - -
29/08:30am 11.5 NW 10 15 1017.4 - 0.0 - Mostly cloudy 10 - - - -
29/08:20am 11.2 NW 12 15 1017.4 - 0.0 - Mostly cloudy 10 - - - -
29/08:00am 10.9 NW 10 13 1017.3 - 0.0 Fog Partly cloudy 7 - - - -
29/07:30am 10.5 NW 8 11 1016.9 - 0.0 Fog Mostly clear 2 - - - -
29/07:00am 10.1 WNW 7 10 1016.6 - 0.0 Fog Mostly clear 0.5 - - - -
29/06:30am 9.9 WNW 7 9 1016.3 - 0.0 Fog Mostly clear 0.5 - - - -
29/06:00am 9.2 WNW 7 9 1016.3 R 0.0 Fog Partly cloudy 0.4 - - - -
29/05:43am 9.0 NW 8 9 1015.8 - 0.0 - Partly cloudy 2 - - - -
29/05:30am 8.6 NW 9 11 1015.6 - 0.0 - - 5 - - - -
29/05:00am 7.1 NW 8 8 1015.6 - 0.0 - - 0.3 - - - -
29/04:30am 6.2 WNW 4 5 1015.6 - 0.0 - - 0.3 - - - -
29/04:00am 7.3 NW 2 4 1015.6 - 0.0 - - 0.9 - - - -
29/03:30am 7.0 NW 4 5 1015.7 - 0.0 - - 0.5 - - - -
29/03:00am 7.0 WNW 4 4 1015.9 - 0.0 - - 0.4 - - - -
29/02:30am 7.7 NW 4 5 1015.7 - 0.0 - - 0.7 - - - -
29/02:06am 7.3 N 3 4 1015.7 - 0.0 - - 8 - - - -
29/02:00am 7.4 N 2 4 1015.8 - 0.0 - - 10 - - - -
29/01:30am 7.6 NNW 5 6 1015.8 - 0.0 - - 10 - - - -
29/01:00am 7.9 NW 4 5 1015.6 - 0.0 - - 10 - - - -
29/12:30am 8.7 NNW 6 8 1016.1 - 0.0 - - 10 - - - -
29/12:00am 9.6 NNW 7 8 1016.2 - 0.0 - - 10 - - - -

Other Formats:

Comma delimited format used in spreadsheet applications
http://www.bom.gov.au/fwo/IDW60701/IDW60701.94802.axf

JavaScript Object Notation format (JSON) in row-major order
http://www.bom.gov.au/fwo/IDW60701/IDW60701.94802.json